PWSweather.com
Personal Weather Stations
Station Observations
GEELONGWX1
Bell Post Hill, GeelongAU

Bell Post HillGeelongAU

Lat: -38.101, Lon: 144.326

Elevation: 204

Station Type: Davis Vantage Pro2

http://www.geelongweather.com

Latest ConditionsUpdated 10:50:01 PM GMT+10:10 Monday, Jun 24, 2019
Currently Today's Max Today's Min Today's Average
Temperature 42.4°F5.8°C 51.8°F11.0°C 32.1°F0.1°C 41.4°F5.2°C
Dew Point 39.7°F4.3°C 45.6°F7.6°C 30.6°F-0.8°C 38.2°F3.4°C
Winds 1.2 mph NE1.9 kmh NE 8.1 mph -13.0 kmh - - 2.6 mph 4.2 kmh
Wind Gusts 2.3 mph3.7 kmh 10.4 mph16.7 kmh - -
Humidity 90% 95% 76% 89%
Pressure 30.58 in1035.6 mb 30.61 in1036.6 mb 30.55 in1034.5 mb -
Hour Temp Dew Point Humidity Winds Wind Gusts Pressure Precip Precip Rate Daily Precip Total
10:50 PM 42.4°F5.8°C 39.7°F4.3°C 90% 1.2 mph NE1.9 kmh NE 2.3 mph3.7 kmh 30.58 in1035.6 mb - 0.00 in0.0 mm 0.00 in0.0 mm
10:40 PM 42.4°F5.8°C 39.7°F4.3°C 90% 2.3 mph NE3.7 kmh NE 2.3 mph3.7 kmh 30.58 in1035.6 mb - 0.00 in0.0 mm 0.00 in0.0 mm
10:30 PM 42.5°F5.8°C 39.8°F4.3°C 90% 1.2 mph NE1.9 kmh NE 2.3 mph3.7 kmh 30.57 in1035.2 mb - 0.00 in0.0 mm 0.00 in0.0 mm
10:20 PM 42.6°F5.9°C 39.9°F4.4°C 90% 1.2 mph NE1.9 kmh NE 2.3 mph3.7 kmh 30.57 in1035.2 mb - 0.00 in0.0 mm 0.00 in0.0 mm
10:10 PM 42.7°F5.9°C 40.0°F4.4°C 90% 1.2 mph NE1.9 kmh NE 3.5 mph5.6 kmh 30.57 in1035.2 mb - 0.00 in0.0 mm 0.00 in0.0 mm
10:00 PM 42.9°F6.1°C 40.2°F4.6°C 90% 1.2 mph NE1.9 kmh NE 2.3 mph3.7 kmh 30.57 in1035.2 mb - 0.00 in0.0 mm 0.00 in0.0 mm
09:50 PM 43.1°F6.2°C 40.4°F4.7°C 90% Calm Calm 1.2 mph1.9 kmh 30.57 in1035.2 mb - 0.00 in0.0 mm 0.00 in0.0 mm
09:40 PM 43.2°F6.2°C 40.5°F4.7°C 90% 1.2 mph NE1.9 kmh NE 2.3 mph3.7 kmh 30.58 in1035.6 mb - 0.00 in0.0 mm 0.00 in0.0 mm
09:30 PM 43.3°F6.3°C 40.6°F4.8°C 90% 2.3 mph NE3.7 kmh NE 3.5 mph5.6 kmh 30.58 in1035.6 mb - 0.00 in0.0 mm 0.00 in0.0 mm
09:20 PM 43.3°F6.3°C 40.6°F4.8°C 90% 1.2 mph NE1.9 kmh NE 2.3 mph3.7 kmh 30.59 in1035.9 mb - 0.00 in0.0 mm 0.00 in0.0 mm
09:10 PM 43.1°F6.2°C 40.1°F4.5°C 89% 1.2 mph NE1.9 kmh NE 2.3 mph3.7 kmh 30.59 in1035.9 mb - 0.00 in0.0 mm 0.00 in0.0 mm
09:00 PM 42.9°F6.1°C 39.9°F4.4°C 89% 1.2 mph NE1.9 kmh NE 1.2 mph1.9 kmh 30.59 in1035.9 mb - 0.00 in0.0 mm 0.00 in0.0 mm
08:50 PM 42.8°F6.0°C 39.5°F4.2°C 88% Calm Calm 1.2 mph1.9 kmh 30.59 in1035.9 mb - 0.00 in0.0 mm 0.00 in0.0 mm
08:40 PM 42.7°F5.9°C 39.4°F4.1°C 88% 1.2 mph NE1.9 kmh NE 2.3 mph3.7 kmh 30.59 in1035.9 mb - 0.00 in0.0 mm 0.00 in0.0 mm
08:30 PM 42.7°F5.9°C 38.8°F3.8°C 86% 2.3 mph NE3.7 kmh NE 3.5 mph5.6 kmh 30.59 in1035.9 mb - 0.00 in0.0 mm 0.00 in0.0 mm
08:20 PM 42.9°F6.1°C 39.0°F3.9°C 86% 1.2 mph NE1.9 kmh NE 2.3 mph3.7 kmh 30.59 in1035.9 mb - 0.00 in0.0 mm 0.00 in0.0 mm
08:10 PM 43.1°F6.2°C 39.2°F4.0°C 86% 2.3 mph NE3.7 kmh NE 3.5 mph5.6 kmh 30.59 in1035.9 mb - 0.00 in0.0 mm 0.00 in0.0 mm
08:00 PM 43.6°F6.4°C 39.7°F4.3°C 86% 2.3 mph NE3.7 kmh NE 3.5 mph5.6 kmh 30.59 in1035.9 mb - 0.00 in0.0 mm 0.00 in0.0 mm
07:50 PM 44.0°F6.7°C 40.1°F4.5°C 86% 2.3 mph NE3.7 kmh NE 3.5 mph5.6 kmh 30.59 in1035.9 mb - 0.00 in0.0 mm 0.00 in0.0 mm
07:40 PM 44.1°F6.7°C 40.2°F4.6°C 86% 2.3 mph NE3.7 kmh NE 2.3 mph3.7 kmh 30.58 in1035.6 mb - 0.00 in0.0 mm 0.00 in0.0 mm
07:30 PM 44.1°F6.7°C 39.9°F4.4°C 85% 1.2 mph NE1.9 kmh NE 3.5 mph5.6 kmh 30.58 in1035.6 mb - 0.00 in0.0 mm 0.00 in0.0 mm
07:20 PM 44.1°F6.7°C 39.6°F4.2°C 84% 2.3 mph NE3.7 kmh NE 3.5 mph5.6 kmh 30.57 in1035.2 mb - 0.00 in0.0 mm 0.00 in0.0 mm
07:10 PM 44.3°F6.8°C 39.5°F4.2°C 83% 1.2 mph NE1.9 kmh NE 2.3 mph3.7 kmh 30.57 in1035.2 mb - 0.00 in0.0 mm 0.00 in0.0 mm
07:00 PM 44.5°F6.9°C 39.7°F4.3°C 83% 1.2 mph NE1.9 kmh NE 3.5 mph5.6 kmh 30.57 in1035.2 mb - 0.00 in0.0 mm 0.00 in0.0 mm
06:50 PM 44.7°F7.1°C 39.5°F4.2°C 82% 1.2 mph NE1.9 kmh NE 1.2 mph1.9 kmh 30.57 in1035.2 mb - 0.00 in0.0 mm 0.00 in0.0 mm
06:40 PM 44.8°F7.1°C 39.3°F4.1°C 81% 1.2 mph NE1.9 kmh NE 2.3 mph3.7 kmh 30.57 in1035.2 mb - 0.00 in0.0 mm 0.00 in0.0 mm
06:30 PM 45.0°F7.2°C 39.5°F4.2°C 81% 1.2 mph NE1.9 kmh NE 2.3 mph3.7 kmh 30.57 in1035.2 mb - 0.00 in0.0 mm 0.00 in0.0 mm
06:20 PM 45.2°F7.3°C 39.4°F4.1°C 80% 1.2 mph NE1.9 kmh NE 2.3 mph3.7 kmh 30.57 in1035.2 mb - 0.00 in0.0 mm 0.00 in0.0 mm
06:10 PM 45.5°F7.5°C 39.7°F4.3°C 80% 1.2 mph NE1.9 kmh NE 2.3 mph3.7 kmh 30.57 in1035.2 mb - 0.00 in0.0 mm 0.00 in0.0 mm
06:00 PM 45.7°F7.6°C 39.6°F4.2°C 79% 1.2 mph NE1.9 kmh NE 2.3 mph3.7 kmh 30.56 in1034.9 mb - 0.00 in0.0 mm 0.00 in0.0 mm
05:50 PM 46.1°F7.8°C 39.7°F4.3°C 78% Calm Calm -- 30.57 in1035.2 mb - 0.00 in0.0 mm 0.00 in0.0 mm
05:40 PM 46.6°F8.1°C 40.1°F4.5°C 78% 1.2 mph NE1.9 kmh NE 2.3 mph3.7 kmh 30.56 in1034.9 mb - 0.00 in0.0 mm 0.00 in0.0 mm
05:30 PM 46.9°F8.3°C 40.4°F4.7°C 78% 1.2 mph NE1.9 kmh NE 2.3 mph3.7 kmh 30.57 in1035.2 mb - 0.00 in0.0 mm 0.00 in0.0 mm
05:20 PM 47.6°F8.7°C 40.7°F4.8°C 77% 1.2 mph NE1.9 kmh NE 1.2 mph1.9 kmh 30.57 in1035.2 mb - 0.00 in0.0 mm 0.00 in0.0 mm
05:10 PM 48.2°F9.0°C 41.0°F5.0°C 76% 1.2 mph NE1.9 kmh NE 2.3 mph3.7 kmh 30.56 in1034.9 mb - 0.00 in0.0 mm 0.00 in0.0 mm
05:00 PM 48.8°F9.3°C 41.9°F5.5°C 77% Calm Calm 1.2 mph1.9 kmh 30.56 in1034.9 mb - 0.00 in0.0 mm 0.00 in0.0 mm
04:50 PM 49.3°F9.6°C 42.4°F5.8°C 77% Calm Calm 1.2 mph1.9 kmh 30.56 in1034.9 mb - 0.00 in0.0 mm 0.00 in0.0 mm
04:40 PM 49.6°F9.8°C 43.0°F6.1°C 78% Calm Calm -- 30.56 in1034.9 mb - 0.00 in0.0 mm 0.00 in0.0 mm
04:30 PM 49.9°F9.9°C 43.0°F6.1°C 77% 1.2 mph NE1.9 kmh NE 2.3 mph3.7 kmh 30.56 in1034.9 mb - 0.00 in0.0 mm 0.00 in0.0 mm
04:20 PM 50.4°F10.2°C 43.5°F6.4°C 77% 1.2 mph NE1.9 kmh NE 3.5 mph5.6 kmh 30.56 in1034.9 mb - 0.00 in0.0 mm 0.00 in0.0 mm
04:10 PM 50.8°F10.4°C 43.8°F6.6°C 77% 1.2 mph NE1.9 kmh NE 2.3 mph3.7 kmh 30.56 in1034.9 mb - 0.00 in0.0 mm 0.00 in0.0 mm
04:00 PM 51.2°F10.7°C 44.2°F6.8°C 77% 1.2 mph NE1.9 kmh NE 1.2 mph1.9 kmh 30.56 in1034.9 mb - 0.00 in0.0 mm 0.00 in0.0 mm
03:50 PM 51.5°F10.8°C 44.5°F6.9°C 77% 1.2 mph NE1.9 kmh NE 2.3 mph3.7 kmh 30.56 in1034.9 mb - 0.00 in0.0 mm 0.00 in0.0 mm
03:40 PM 51.7°F10.9°C 44.7°F7.1°C 77% 1.2 mph NE1.9 kmh NE 2.3 mph3.7 kmh 30.55 in1034.5 mb - 0.00 in0.0 mm 0.00 in0.0 mm
03:30 PM 51.8°F11.0°C 45.1°F7.3°C 78% 1.2 mph NE1.9 kmh NE 3.5 mph5.6 kmh 30.55 in1034.5 mb - 0.00 in0.0 mm 0.00 in0.0 mm
03:20 PM 51.6°F10.9°C 45.0°F7.2°C 78% 2.3 mph NE3.7 kmh NE 2.3 mph3.7 kmh 30.55 in1034.5 mb - 0.00 in0.0 mm 0.00 in0.0 mm
03:10 PM 51.3°F10.7°C 45.0°F7.2°C 79% Calm Calm 1.2 mph1.9 kmh 30.55 in1034.5 mb - 0.00 in0.0 mm 0.00 in0.0 mm
03:00 PM 51.0°F10.6°C 45.0°F7.2°C 80% 1.2 mph NE1.9 kmh NE 2.3 mph3.7 kmh 30.55 in1034.5 mb - 0.00 in0.0 mm 0.00 in0.0 mm
02:50 PM 50.8°F10.4°C 45.2°F7.3°C 81% 2.3 mph NE3.7 kmh NE 3.5 mph5.6 kmh 30.55 in1034.5 mb - 0.00 in0.0 mm 0.00 in0.0 mm
02:40 PM 50.4°F10.2°C 45.1°F7.3°C 82% 2.3 mph NE3.7 kmh NE 3.5 mph5.6 kmh 30.55 in1034.5 mb - 0.00 in0.0 mm 0.00 in0.0 mm
02:30 PM 49.9°F9.9°C 45.2°F7.3°C 84% 2.3 mph NE3.7 kmh NE 3.5 mph5.6 kmh 30.55 in1034.5 mb - 0.00 in0.0 mm 0.00 in0.0 mm
02:20 PM 49.4°F9.7°C 45.1°F7.3°C 85% 1.2 mph NE1.9 kmh NE 2.3 mph3.7 kmh 30.55 in1034.5 mb - 0.00 in0.0 mm 0.00 in0.0 mm
02:10 PM 48.7°F9.3°C 44.4°F6.9°C 85% 2.3 mph NE3.7 kmh NE 3.5 mph5.6 kmh 30.55 in1034.5 mb - 0.00 in0.0 mm 0.00 in0.0 mm
02:00 PM 48.2°F9.0°C 43.9°F6.6°C 85% 2.3 mph ENE3.7 kmh ENE 4.6 mph7.4 kmh 30.55 in1034.5 mb - 0.00 in0.0 mm 0.00 in0.0 mm
01:50 PM 47.8°F8.8°C 43.5°F6.4°C 85% 2.3 mph ENE3.7 kmh ENE 3.5 mph5.6 kmh 30.55 in1034.5 mb - 0.00 in0.0 mm 0.00 in0.0 mm
01:40 PM 47.5°F8.6°C 43.2°F6.2°C 85% 3.5 mph ENE5.6 kmh ENE 3.5 mph5.6 kmh 30.55 in1034.5 mb - 0.00 in0.0 mm 0.00 in0.0 mm
01:30 PM 47.5°F8.6°C 42.9°F6.1°C 84% 3.5 mph ENE5.6 kmh ENE 4.6 mph7.4 kmh 30.55 in1034.5 mb - 0.00 in0.0 mm 0.00 in0.0 mm
01:20 PM 48.0°F8.9°C 43.4°F6.3°C 84% 3.5 mph NE5.6 kmh NE 3.5 mph5.6 kmh 30.56 in1034.9 mb - 0.00 in0.0 mm 0.00 in0.0 mm
01:10 PM 48.3°F9.1°C 43.7°F6.5°C 84% 3.5 mph ENE5.6 kmh ENE 5.8 mph9.3 kmh 30.56 in1034.9 mb - 0.00 in0.0 mm 0.00 in0.0 mm
01:00 PM 48.6°F9.2°C 44.0°F6.7°C 84% 3.5 mph ENE5.6 kmh ENE 4.6 mph7.4 kmh 30.56 in1034.9 mb - 0.00 in0.0 mm 0.00 in0.0 mm
12:50 PM 48.8°F9.3°C 44.5°F6.9°C 85% 2.3 mph NE3.7 kmh NE 3.5 mph5.6 kmh 30.56 in1034.9 mb - 0.00 in0.0 mm 0.00 in0.0 mm
12:40 PM 48.9°F9.4°C 44.6°F7.0°C 85% 3.5 mph NE5.6 kmh NE 3.5 mph5.6 kmh 30.56 in1034.9 mb - 0.00 in0.0 mm 0.00 in0.0 mm
12:30 PM 48.8°F9.3°C 44.8°F7.1°C 86% 3.5 mph ENE5.6 kmh ENE 4.6 mph7.4 kmh 30.56 in1034.9 mb - 0.00 in0.0 mm 0.00 in0.0 mm
12:20 PM 48.7°F9.3°C 45.0°F7.2°C 87% 4.6 mph NE7.4 kmh NE 6.9 mph11.1 kmh 30.57 in1035.2 mb - 0.00 in0.0 mm 0.00 in0.0 mm
12:10 PM 48.2°F9.0°C 44.8°F7.1°C 88% 4.6 mph NNE7.4 kmh NNE 5.8 mph9.3 kmh 30.57 in1035.2 mb - 0.00 in0.0 mm 0.00 in0.0 mm
12:00 PM 47.8°F8.8°C 45.0°F7.2°C 90% 2.3 mph NNE3.7 kmh NNE 3.5 mph5.6 kmh 30.57 in1035.2 mb - 0.00 in0.0 mm 0.00 in0.0 mm
11:50 AM 47.8°F8.8°C 45.6°F7.6°C 92% 3.5 mph N5.6 kmh N 4.6 mph7.4 kmh 30.58 in1035.6 mb - 0.00 in0.0 mm 0.00 in0.0 mm
11:40 AM 47.1°F8.4°C 45.2°F7.3°C 93% 2.3 mph NNE3.7 kmh NNE 3.5 mph5.6 kmh 30.58 in1035.6 mb - 0.00 in0.0 mm 0.00 in0.0 mm
11:30 AM 46.5°F8.1°C 44.6°F7.0°C 93% 3.5 mph 5.6 kmh 6.9 mph11.1 kmh 30.58 in1035.6 mb - 0.00 in0.0 mm 0.00 in0.0 mm
11:20 AM 46.3°F7.9°C 44.7°F7.1°C 94% 3.5 mph N5.6 kmh N 5.8 mph9.3 kmh 30.58 in1035.6 mb - 0.00 in0.0 mm 0.00 in0.0 mm
11:10 AM 45.9°F7.7°C 44.3°F6.8°C 94% 3.5 mph N5.6 kmh N 3.5 mph5.6 kmh 30.59 in1035.9 mb - 0.00 in0.0 mm 0.00 in0.0 mm
11:00 AM 45.4°F7.4°C 44.1°F6.7°C 95% 2.3 mph N3.7 kmh N 3.5 mph5.6 kmh 30.59 in1035.9 mb - 0.00 in0.0 mm 0.00 in0.0 mm
10:50 AM 44.9°F7.2°C 43.3°F6.3°C 94% 2.3 mph N3.7 kmh N 3.5 mph5.6 kmh 30.59 in1035.9 mb - 0.00 in0.0 mm 0.00 in0.0 mm
10:40 AM 44.6°F7.0°C 43.2°F6.2°C 95% 2.3 mph N3.7 kmh N 3.5 mph5.6 kmh 30.60 in1036.2 mb - 0.00 in0.0 mm 0.00 in0.0 mm
10:30 AM 44.2°F6.8°C 42.9°F6.1°C 95% Calm Calm 3.5 mph5.6 kmh 30.60 in1036.2 mb - 0.00 in0.0 mm 0.00 in0.0 mm
10:20 AM 44.0°F6.7°C 42.7°F5.9°C 95% Calm Calm 1.2 mph1.9 kmh 30.60 in1036.2 mb - 0.00 in0.0 mm 0.00 in0.0 mm
10:10 AM 43.5°F6.4°C 42.2°F5.7°C 95% Calm Calm -- 30.61 in1036.6 mb - 0.00 in0.0 mm 0.00 in0.0 mm
10:00 AM 42.6°F5.9°C 41.3°F5.2°C 95% Calm Calm -- 30.61 in1036.6 mb - 0.00 in0.0 mm 0.00 in0.0 mm
09:50 AM 41.3°F5.2°C 40.0°F4.4°C 95% Calm Calm -- 30.61 in1036.6 mb - 0.00 in0.0 mm 0.00 in0.0 mm
09:40 AM 40.3°F4.6°C 38.9°F3.8°C 95% Calm Calm -- 30.61 in1036.6 mb - 0.00 in0.0 mm 0.00 in0.0 mm
09:30 AM 38.6°F3.7°C 37.3°F2.9°C 95% Calm Calm -- 30.61 in1036.6 mb - 0.00 in0.0 mm 0.00 in0.0 mm
09:20 AM 36.6°F2.6°C 35.3°F1.8°C 95% Calm Calm -- 30.61 in1036.6 mb - 0.00 in0.0 mm 0.00 in0.0 mm
09:10 AM 35.5°F1.9°C 33.9°F1.1°C 94% Calm Calm -- 30.60 in1036.2 mb - 0.00 in0.0 mm 0.00 in0.0 mm
09:00 AM 34.4°F1.3°C 32.8°F0.4°C 94% Calm Calm -- 30.60 in1036.2 mb - 0.00 in0.0 mm 0.00 in0.0 mm
08:50 AM 33.6°F0.9°C 32.0°F0.0°C 94% Calm Calm 1.2 mph1.9 kmh 30.60 in1036.2 mb - 0.00 in0.0 mm 0.00 in0.0 mm
08:40 AM 33.0°F0.6°C 31.5°F-0.3°C 94% 1.2 mph S1.9 kmh S 1.2 mph1.9 kmh 30.60 in1036.2 mb - 0.00 in0.0 mm 0.00 in0.0 mm
08:30 AM 32.5°F0.3°C 31.0°F-0.6°C 94% Calm Calm 1.2 mph1.9 kmh 30.60 in1036.2 mb - 0.00 in0.0 mm 0.00 in0.0 mm
08:20 AM 32.3°F0.2°C 30.8°F-0.7°C 94% 1.2 mph S1.9 kmh S 3.5 mph5.6 kmh 30.59 in1035.9 mb - 0.00 in0.0 mm 0.00 in0.0 mm
08:10 AM 32.2°F0.1°C 30.7°F-0.7°C 94% 2.3 mph S3.7 kmh S 3.5 mph5.6 kmh 30.60 in1036.2 mb - 0.00 in0.0 mm 0.00 in0.0 mm
08:00 AM 32.1°F0.1°C 30.6°F-0.8°C 94% 3.5 mph S5.6 kmh S 3.5 mph5.6 kmh 30.59 in1035.9 mb - 0.00 in0.0 mm 0.00 in0.0 mm
07:50 AM 32.2°F0.1°C 30.6°F-0.8°C 94% 2.3 mph S3.7 kmh S 3.5 mph5.6 kmh 30.60 in1036.2 mb - 0.00 in0.0 mm 0.00 in0.0 mm
07:40 AM 32.3°F0.2°C 30.8°F-0.7°C 94% 2.3 mph S3.7 kmh S 3.5 mph5.6 kmh 30.60 in1036.2 mb - 0.00 in0.0 mm 0.00 in0.0 mm
07:30 AM 32.4°F0.2°C 30.6°F-0.8°C 93% 3.5 mph S5.6 kmh S 3.5 mph5.6 kmh 30.59 in1035.9 mb - 0.00 in0.0 mm 0.00 in0.0 mm
07:20 AM 32.5°F0.3°C 30.7°F-0.7°C 93% 4.6 mph S7.4 kmh S 6.9 mph11.1 kmh 30.59 in1035.9 mb - 0.00 in0.0 mm 0.00 in0.0 mm
07:10 AM 32.7°F0.4°C 31.2°F-0.4°C 94% 3.5 mph SSW5.6 kmh SSW 3.5 mph5.6 kmh 30.59 in1035.9 mb - 0.00 in0.0 mm 0.00 in0.0 mm
07:00 AM 32.7°F0.4°C 31.2°F-0.4°C 94% 2.3 mph SSW3.7 kmh SSW 3.5 mph5.6 kmh 30.58 in1035.6 mb - 0.00 in0.0 mm 0.00 in0.0 mm
06:50 AM 32.6°F0.3°C 30.8°F-0.7°C 93% 4.6 mph S7.4 kmh S 5.8 mph9.3 kmh 30.58 in1035.6 mb - 0.00 in0.0 mm 0.00 in0.0 mm
06:40 AM 32.5°F0.3°C 31.0°F-0.6°C 94% 4.6 mph S7.4 kmh S 8.1 mph13.0 kmh 30.58 in1035.6 mb - 0.00 in0.0 mm 0.00 in0.0 mm
06:30 AM 32.5°F0.3°C 30.7°F-0.7°C 93% 4.6 mph S7.4 kmh S 8.1 mph13.0 kmh 30.58 in1035.6 mb - 0.00 in0.0 mm 0.00 in0.0 mm
06:20 AM 32.6°F0.3°C 30.8°F-0.7°C 93% 5.8 mph SSW9.3 kmh SSW 6.9 mph11.1 kmh 30.58 in1035.6 mb - 0.00 in0.0 mm 0.00 in0.0 mm
06:10 AM 32.6°F0.3°C 30.8°F-0.7°C 93% 4.6 mph SSW7.4 kmh SSW 3.5 mph5.6 kmh 30.58 in1035.6 mb - 0.00 in0.0 mm 0.00 in0.0 mm
06:00 AM 32.7°F0.4°C 30.9°F-0.6°C 93% 4.6 mph SSW7.4 kmh SSW 3.5 mph5.6 kmh 30.58 in1035.6 mb - 0.00 in0.0 mm 0.00 in0.0 mm
05:50 AM 32.9°F0.5°C 31.1°F-0.5°C 93% 5.8 mph SSW9.3 kmh SSW 6.9 mph11.1 kmh 30.58 in1035.6 mb - 0.00 in0.0 mm 0.00 in0.0 mm
05:40 AM 33.1°F0.6°C 31.3°F-0.4°C 93% 4.6 mph SSW7.4 kmh SSW 5.8 mph9.3 kmh 30.58 in1035.6 mb - 0.00 in0.0 mm 0.00 in0.0 mm
05:30 AM 33.2°F0.7°C 31.4°F-0.3°C 93% 3.5 mph SSW5.6 kmh SSW 3.5 mph5.6 kmh 30.57 in1035.2 mb - 0.00 in0.0 mm 0.00 in0.0 mm
05:20 AM 33.2°F0.7°C 31.4°F-0.3°C 93% 3.5 mph SSW5.6 kmh SSW 3.5 mph5.6 kmh 30.58 in1035.6 mb - 0.00 in0.0 mm 0.00 in0.0 mm
05:10 AM 33.4°F0.8°C 31.6°F-0.2°C 93% 5.8 mph S9.3 kmh S 6.9 mph11.1 kmh 30.58 in1035.6 mb - 0.00 in0.0 mm 0.00 in0.0 mm
05:00 AM 33.5°F0.8°C 31.7°F-0.2°C 93% 5.8 mph S9.3 kmh S 6.9 mph11.1 kmh 30.58 in1035.6 mb - 0.00 in0.0 mm 0.00 in0.0 mm
04:50 AM 33.6°F0.9°C 31.8°F-0.1°C 93% 6.9 mph S11.1 kmh S 6.9 mph11.1 kmh 30.58 in1035.6 mb - 0.00 in0.0 mm 0.00 in0.0 mm
04:40 AM 33.9°F1.1°C 32.1°F0.1°C 93% 5.8 mph S9.3 kmh S 6.9 mph11.1 kmh 30.58 in1035.6 mb - 0.00 in0.0 mm 0.00 in0.0 mm
04:30 AM 34.3°F1.3°C 32.5°F0.3°C 93% 4.6 mph S7.4 kmh S 5.8 mph9.3 kmh 30.57 in1035.2 mb - 0.00 in0.0 mm 0.00 in0.0 mm
04:20 AM 34.6°F1.4°C 32.8°F0.4°C 93% 4.6 mph S7.4 kmh S 5.8 mph9.3 kmh 30.57 in1035.2 mb - 0.00 in0.0 mm 0.00 in0.0 mm
04:10 AM 35.1°F1.7°C 33.3°F0.7°C 93% 4.6 mph S7.4 kmh S 6.9 mph11.1 kmh 30.58 in1035.6 mb - 0.00 in0.0 mm 0.00 in0.0 mm
04:00 AM 35.4°F1.9°C 33.6°F0.9°C 93% 3.5 mph SSW5.6 kmh SSW 3.5 mph5.6 kmh 30.58 in1035.6 mb - 0.00 in0.0 mm 0.00 in0.0 mm
03:50 AM 35.4°F1.9°C 33.6°F0.9°C 93% 3.5 mph S5.6 kmh S 3.5 mph5.6 kmh 30.57 in1035.2 mb - 0.00 in0.0 mm 0.00 in0.0 mm
03:40 AM 35.4°F1.9°C 33.6°F0.9°C 93% 3.5 mph SSW5.6 kmh SSW 3.5 mph5.6 kmh 30.57 in1035.2 mb - 0.00 in0.0 mm 0.00 in0.0 mm
03:30 AM 35.5°F1.9°C 33.7°F0.9°C 93% 3.5 mph S5.6 kmh S 5.8 mph9.3 kmh 30.57 in1035.2 mb - 0.00 in0.0 mm 0.00 in0.0 mm
03:20 AM 35.7°F2.1°C 33.9°F1.1°C 93% 3.5 mph SSW5.6 kmh SSW 5.8 mph9.3 kmh 30.57 in1035.2 mb - 0.00 in0.0 mm 0.00 in0.0 mm
03:10 AM 36.0°F2.2°C 33.9°F1.1°C 92% 3.5 mph SSW5.6 kmh SSW 5.8 mph9.3 kmh 30.57 in1035.2 mb - 0.00 in0.0 mm 0.00 in0.0 mm
03:00 AM 36.3°F2.4°C 34.5°F1.4°C 93% 3.5 mph SSW5.6 kmh SSW 3.5 mph5.6 kmh 30.57 in1035.2 mb - 0.00 in0.0 mm 0.00 in0.0 mm
02:50 AM 36.5°F2.5°C 34.7°F1.5°C 93% 2.3 mph SSW3.7 kmh SSW 3.5 mph5.6 kmh 30.57 in1035.2 mb - 0.00 in0.0 mm 0.00 in0.0 mm
02:40 AM 36.6°F2.6°C 34.8°F1.6°C 93% 2.3 mph SSW3.7 kmh SSW 3.5 mph5.6 kmh 30.57 in1035.2 mb - 0.00 in0.0 mm 0.00 in0.0 mm
02:30 AM 36.6°F2.6°C 34.8°F1.6°C 93% 3.5 mph SSW5.6 kmh SSW 5.8 mph9.3 kmh 30.57 in1035.2 mb - 0.00 in0.0 mm 0.00 in0.0 mm
02:20 AM 36.6°F2.6°C 34.8°F1.6°C 93% 4.6 mph S7.4 kmh S 6.9 mph11.1 kmh 30.57 in1035.2 mb - 0.00 in0.0 mm 0.00 in0.0 mm
02:10 AM 36.6°F2.6°C 34.5°F1.4°C 92% 4.6 mph S7.4 kmh S 6.9 mph11.1 kmh 30.57 in1035.2 mb - 0.00 in0.0 mm 0.00 in0.0 mm
02:00 AM 36.5°F2.5°C 34.4°F1.3°C 92% 5.8 mph S9.3 kmh S 6.9 mph11.1 kmh 30.58 in1035.6 mb - 0.00 in0.0 mm 0.00 in0.0 mm
01:50 AM 36.3°F2.4°C 34.2°F1.2°C 92% 5.8 mph S9.3 kmh S 9.2 mph14.8 kmh 30.58 in1035.6 mb - 0.00 in0.0 mm 0.00 in0.0 mm
01:40 AM 36.2°F2.3°C 34.1°F1.2°C 92% 8.1 mph S13.0 kmh S 10.4 mph16.7 kmh 30.58 in1035.6 mb - 0.00 in0.0 mm 0.00 in0.0 mm
01:30 AM 36.1°F2.3°C 34.0°F1.1°C 92% 8.1 mph S13.0 kmh S 9.2 mph14.8 kmh 30.58 in1035.6 mb - 0.00 in0.0 mm 0.00 in0.0 mm
01:20 AM 36.1°F2.3°C 33.7°F0.9°C 91% 5.8 mph S9.3 kmh S 8.1 mph13.0 kmh 30.57 in1035.2 mb - 0.00 in0.0 mm 0.00 in0.0 mm
01:10 AM 36.1°F2.3°C 33.7°F0.9°C 91% 5.8 mph S9.3 kmh S 6.9 mph11.1 kmh 30.57 in1035.2 mb - 0.00 in0.0 mm 0.00 in0.0 mm
01:00 AM 36.1°F2.3°C 33.7°F0.9°C 91% 5.8 mph S9.3 kmh S 8.1 mph13.0 kmh 30.57 in1035.2 mb - 0.00 in0.0 mm 0.00 in0.0 mm
12:50 AM 36.2°F2.3°C 33.8°F1.0°C 91% 4.6 mph SSW7.4 kmh SSW 6.9 mph11.1 kmh 30.57 in1035.2 mb - 0.00 in0.0 mm 0.00 in0.0 mm
12:40 AM 36.4°F2.4°C 34.0°F1.1°C 91% 4.6 mph S7.4 kmh S 5.8 mph9.3 kmh 30.57 in1035.2 mb - 0.00 in0.0 mm 0.00 in0.0 mm
12:30 AM 36.6°F2.6°C 34.2°F1.2°C 91% 3.5 mph S5.6 kmh S 5.8 mph9.3 kmh 30.57 in1035.2 mb - 0.00 in0.0 mm 0.00 in0.0 mm
12:20 AM 36.8°F2.7°C 34.1°F1.2°C 90% 4.6 mph S7.4 kmh S 6.9 mph11.1 kmh 30.57 in1035.2 mb - 0.00 in0.0 mm 0.00 in0.0 mm
12:10 AM 36.8°F2.7°C 34.1°F1.2°C 90% 3.5 mph S5.6 kmh S 5.8 mph9.3 kmh 30.57 in1035.2 mb - 0.00 in0.0 mm 0.00 in0.0 mm
12:00 AM 36.8°F2.7°C 34.1°F1.2°C 90% 3.5 mph S5.6 kmh S 3.5 mph5.6 kmh 30.57 in1035.2 mb - 0.00 in0.0 mm 0.00 in0.0 mm